createdAt,value
2022-11-19T00:01:27.176Z,16.20
2022-11-19T00:03:55.269Z,19.52
2022-11-19T00:06:26.379Z,16.35
2022-11-19T00:08:54.326Z,18.80
2022-11-19T00:11:43.302Z,26.13
2022-11-19T00:14:13.891Z,19.77
2022-11-19T00:16:41.644Z,15.70
2022-11-19T00:19:11.204Z,17.50
2022-11-19T00:21:38.187Z,17.98
2022-11-19T00:24:05.790Z,18.73
2022-11-19T00:26:32.904Z,19.85
2022-11-19T00:28:59.940Z,20.38
2022-11-19T00:31:26.946Z,20.05
2022-11-19T00:33:54.943Z,18.52
2022-11-19T00:36:25.472Z,17.88
2022-11-19T00:38:52.566Z,18.42
2022-11-19T00:41:19.594Z,18.80
2022-11-19T00:43:49.897Z,18.17
2022-11-19T00:46:24.473Z,17.15
2022-11-19T00:48:54.689Z,22.20
2022-11-19T00:51:23.575Z,20.98
2022-11-19T00:53:51.061Z,18.20
2022-11-19T00:56:21.647Z,18.70
2022-11-19T00:58:49.997Z,18.60
2022-11-19T01:01:20.490Z,19.90
2022-11-19T01:03:48.194Z,19.80
2022-11-19T01:06:19.762Z,22.23
2022-11-19T01:08:49.149Z,22.55
2022-11-19T01:11:27.564Z,19.02
2022-11-19T01:13:54.834Z,20.48
2022-11-19T01:16:28.147Z,19.50
2022-11-19T01:18:55.689Z,18.48
2022-11-19T01:21:26.602Z,19.33
2022-11-19T01:23:53.918Z,17.52
2022-11-19T01:26:21.447Z,21.40
2022-11-19T01:28:48.589Z,20.17
2022-11-19T01:31:22.844Z,17.30
2022-11-19T01:33:50.445Z,17.75
2022-11-19T01:36:22.322Z,20.42
2022-11-19T01:38:51.122Z,21.33
2022-11-19T01:41:32.271Z,19.65
2022-11-19T01:44:07.091Z,18.80
2022-11-19T01:46:38.731Z,18.52
2022-11-19T01:49:16.748Z,18.13
2022-11-19T01:51:53.175Z,19.95
2022-11-19T01:54:35.143Z,18.90
2022-11-19T01:57:08.533Z,21.73
2022-11-19T01:59:36.519Z,19.17
2022-11-19T02:02:03.521Z,19.17
2022-11-19T02:04:31.573Z,19.65
2022-11-19T02:06:58.965Z,25.05
2022-11-19T02:09:29.190Z,21.42
2022-11-19T02:12:20.053Z,21.08
2022-11-19T02:15:17.543Z,21.05
2022-11-19T02:17:56.846Z,20.67
2022-11-19T02:20:53.561Z,21.73
2022-11-19T02:23:32.465Z,19.98
2022-11-19T02:26:17.457Z,19.50
2022-11-19T02:29:11.563Z,21.77
2022-11-19T02:31:57.514Z,18.98
2022-11-19T02:34:34.107Z,18.45
2022-11-19T02:37:21.982Z,17.88
2022-11-19T02:40:13.919Z,18.85
2022-11-19T02:43:13.491Z,18.40
2022-11-19T02:45:47.637Z,17.27
2022-11-19T02:48:30.124Z,21.15
2022-11-19T02:51:01.746Z,18.05
2022-11-19T02:53:29.716Z,23.23
2022-11-19T02:56:11.618Z,22.77
2022-11-19T02:59:06.028Z,18.73
2022-11-19T03:01:57.119Z,14.77
2022-11-19T03:04:29.782Z,19.90
2022-11-19T03:07:26.302Z,20.10
2022-11-19T03:09:57.704Z,21.05
2022-11-19T03:12:58.885Z,17.52
2022-11-19T03:15:53.350Z,17.83
2022-11-19T03:18:45.092Z,20.20
2022-11-19T03:21:24.117Z,21.25
2022-11-19T03:24:14.171Z,18.25
2022-11-19T03:27:02.762Z,19.45
2022-11-19T03:29:36.514Z,18.80
2022-11-19T03:32:13.011Z,21.73
2022-11-19T03:34:44.668Z,22.70
2022-11-19T03:37:16.210Z,17.50
2022-11-19T03:39:45.101Z,19.52
2022-11-19T03:42:16.028Z,18.98
2022-11-19T03:44:47.607Z,23.98
2022-11-19T03:47:25.992Z,16.60
2022-11-19T03:50:02.280Z,19.52
2022-11-19T03:52:29.508Z,20.17
2022-11-19T03:54:56.610Z,21.25
2022-11-19T03:57:26.972Z,19.85
2022-11-19T03:59:53.988Z,18.30
2022-11-19T04:02:21.232Z,18.40
2022-11-19T04:04:48.136Z,20.48
2022-11-19T04:07:22.015Z,19.85
2022-11-19T04:09:50.023Z,16.55
2022-11-19T04:12:22.673Z,20.42
2022-11-19T04:14:50.987Z,19.85
2022-11-19T04:17:19.227Z,18.10
2022-11-19T04:19:46.348Z,19.40
2022-11-19T04:22:13.320Z,19.92
2022-11-19T04:24:40.269Z,22.63
2022-11-19T04:27:07.172Z,20.63
2022-11-19T04:29:34.044Z,19.50
2022-11-19T04:32:00.960Z,20.75
2022-11-19T04:34:27.886Z,19.95
2022-11-19T04:36:54.767Z,20.30
2022-11-19T04:39:22.039Z,16.55
2022-11-19T04:41:49.079Z,16.95
2022-11-19T04:44:16.020Z,18.63
2022-11-19T04:46:43.121Z,18.45
2022-11-19T04:49:10.056Z,18.98
2022-11-19T04:51:36.960Z,19.50
2022-11-19T04:54:04.148Z,21.25
2022-11-19T04:56:31.027Z,24.50
2022-11-19T04:58:57.897Z,19.40
2022-11-19T05:01:24.965Z,18.50
2022-11-19T05:03:52.067Z,16.40
2022-11-19T05:06:19.349Z,17.65
2022-11-19T05:08:46.523Z,16.83
2022-11-19T05:11:13.486Z,16.35
2022-11-19T05:13:40.424Z,15.98
2022-11-19T05:16:07.834Z,18.40
2022-11-19T05:18:34.893Z,18.25
2022-11-19T05:21:01.832Z,19.80
2022-11-19T05:23:28.771Z,19.58
2022-11-19T05:25:55.660Z,18.05
2022-11-19T05:28:37.648Z,21.95
2022-11-19T05:31:06.568Z,20.52
2022-11-19T05:33:34.398Z,21.63
2022-11-19T05:36:02.533Z,21.58
2022-11-19T05:38:29.800Z,18.17
2022-11-19T05:40:56.715Z,18.92
2022-11-19T05:43:23.669Z,16.85
2022-11-19T05:45:50.666Z,18.25
2022-11-19T05:48:17.565Z,19.17
2022-11-19T05:50:44.491Z,20.58
2022-11-19T05:53:11.483Z,18.92
2022-11-19T05:55:38.385Z,17.42
2022-11-19T05:58:05.427Z,15.45
2022-11-19T06:00:32.355Z,21.38
2022-11-19T06:02:59.312Z,18.42
2022-11-19T06:05:26.299Z,15.63
2022-11-19T06:07:53.218Z,20.67
2022-11-19T06:10:20.161Z,17.77
2022-11-19T06:12:47.035Z,20.58
2022-11-19T06:15:14.990Z,20.02
2022-11-19T06:17:42.429Z,19.67
2022-11-19T06:20:11.155Z,20.98
2022-11-19T06:22:39.955Z,20.25
2022-11-19T06:25:07.930Z,23.30
2022-11-19T06:27:35.070Z,19.05
2022-11-19T06:30:02.597Z,24.77
2022-11-19T06:32:29.580Z,19.35
2022-11-19T06:34:56.647Z,19.80
2022-11-19T06:37:24.144Z,19.25
2022-11-19T06:39:51.130Z,16.38
2022-11-19T06:42:36.373Z,20.40
2022-11-19T06:45:14.115Z,20.90
2022-11-19T06:47:46.449Z,18.98
2022-11-19T06:50:13.490Z,20.63
2022-11-19T06:52:40.334Z,18.55
2022-11-19T06:55:07.754Z,17.30
2022-11-19T06:57:34.722Z,19.85
2022-11-19T07:00:01.578Z,22.30
2022-11-19T07:02:28.529Z,18.55
2022-11-19T07:04:55.400Z,19.98
2022-11-19T07:07:22.512Z,19.90
2022-11-19T07:09:49.552Z,22.58
2022-11-19T07:12:16.428Z,30.00
2022-11-19T07:14:43.308Z,24.35
2022-11-19T07:17:10.230Z,18.98
2022-11-19T07:19:37.129Z,19.30
2022-11-19T07:22:04.061Z,21.27
2022-11-19T07:24:30.985Z,18.95
2022-11-19T07:26:57.887Z,32.35
2022-11-19T07:29:24.857Z,120.15
2022-11-19T07:31:53.271Z,187.05
2022-11-19T07:34:20.882Z,65.15
2022-11-19T07:36:49.332Z,23.58
2022-11-19T07:39:17.080Z,26.60
2022-11-19T07:42:02.847Z,22.17
2022-11-19T07:44:32.045Z,22.17
2022-11-19T07:46:59.143Z,22.02
2022-11-19T07:49:26.879Z,19.92
2022-11-19T07:51:54.761Z,21.65
2022-11-19T07:54:21.816Z,26.58
2022-11-19T07:56:48.841Z,36.47
2022-11-19T07:59:15.744Z,79.35
2022-11-19T08:01:42.992Z,40.03
2022-11-19T08:04:09.919Z,30.70
2022-11-19T08:06:37.061Z,26.50
2022-11-19T08:09:05.534Z,20.17
2022-11-19T08:11:32.517Z,72.75
2022-11-19T08:14:03.012Z,52.08
2022-11-19T08:16:50.976Z,31.30
2022-11-19T08:19:18.998Z,26.33
2022-11-19T08:21:47.977Z,27.95
2022-11-19T08:24:19.730Z,30.05
2022-11-19T08:26:47.925Z,48.00
2022-11-19T08:29:18.284Z,35.30
2022-11-19T08:31:47.691Z,33.00
2022-11-19T08:34:15.961Z,34.50
2022-11-19T08:36:43.414Z,30.60
2022-11-19T08:39:11.205Z,29.50
2022-11-19T08:41:56.554Z,24.48
2022-11-19T08:44:23.714Z,25.00
2022-11-19T08:46:50.998Z,25.15
2022-11-19T08:49:18.045Z,26.45
2022-11-19T08:51:44.944Z,26.33
2022-11-19T08:54:13.160Z,24.73
2022-11-19T08:56:40.487Z,28.50
2022-11-19T08:59:07.399Z,27.42
2022-11-19T09:01:34.349Z,27.00
2022-11-19T09:04:01.207Z,27.25
2022-11-19T09:06:28.294Z,27.63
2022-11-19T09:08:55.359Z,23.35
2022-11-19T09:11:23.109Z,28.33
2022-11-19T09:13:50.063Z,23.35
2022-11-19T09:16:17.515Z,26.10
2022-11-19T09:18:44.528Z,29.92
2022-11-19T09:21:12.577Z,26.63
2022-11-19T09:23:42.515Z,28.17
2022-11-19T09:26:14.754Z,27.73
2022-11-19T09:28:43.384Z,26.70
2022-11-19T09:31:14.841Z,28.98
2022-11-19T09:33:45.684Z,31.52
2022-11-19T09:36:14.259Z,29.38
2022-11-19T09:38:41.986Z,28.23
2022-11-19T09:41:52.644Z,24.23
2022-11-19T09:44:57.121Z,26.95
2022-11-19T09:48:32.981Z,26.55
2022-11-19T09:51:19.477Z,24.13
2022-11-19T09:54:07.491Z,28.15
2022-11-19T09:56:51.124Z,29.35
2022-11-19T09:59:38.189Z,26.65
2022-11-19T10:02:18.805Z,27.50
2022-11-19T10:04:48.174Z,26.48
2022-11-19T10:07:39.277Z,29.02
2022-11-19T10:10:27.480Z,28.08
2022-11-19T10:13:17.658Z,24.92
2022-11-19T10:16:13.887Z,26.90
2022-11-19T10:22:29.182Z,26.77
2022-11-19T10:25:10.721Z,27.48
2022-11-19T10:27:50.900Z,27.50
2022-11-19T10:30:23.184Z,28.83
2022-11-19T10:33:00.607Z,25.15
2022-11-19T10:35:40.709Z,29.38
2022-11-19T10:38:24.057Z,24.08
2022-11-19T10:41:10.595Z,28.63
2022-11-19T10:43:52.048Z,26.90
2022-11-19T10:46:25.994Z,26.42
2022-11-19T10:48:58.948Z,23.98
2022-11-19T10:51:38.405Z,26.27
2022-11-19T10:54:24.205Z,23.85
2022-11-19T10:56:53.471Z,27.65
2022-11-19T10:59:26.295Z,25.42
2022-11-19T11:02:01.533Z,24.75
2022-11-19T11:07:07.501Z,25.00
2022-11-19T11:09:40.389Z,21.42
2022-11-19T11:13:02.071Z,22.88
2022-11-19T11:15:29.159Z,22.77
2022-11-19T11:18:09.056Z,17.73
2022-11-19T11:20:39.190Z,17.10
2022-11-19T11:23:27.543Z,19.45
2022-11-19T11:26:24.921Z,14.65
2022-11-19T11:29:08.016Z,14.43
2022-11-19T11:31:42.935Z,12.93
2022-11-19T11:34:43.732Z,18.08
2022-11-19T11:37:12.118Z,12.43
2022-11-19T11:39:44.359Z,13.82
2022-11-19T11:42:19.373Z,13.52
2022-11-19T11:45:00.250Z,12.18
2022-11-19T11:47:32.129Z,17.17
2022-11-19T11:50:23.313Z,13.88
2022-11-19T11:52:54.479Z,15.15
2022-11-19T11:55:24.628Z,8.88
2022-11-19T11:58:05.274Z,11.18
2022-11-19T12:00:46.361Z,10.27
2022-11-19T12:03:19.093Z,6.80
2022-11-19T12:06:03.635Z,5.80
2022-11-19T12:08:55.283Z,8.05
2022-11-19T12:11:49.739Z,7.85
2022-11-19T12:15:30.287Z,9.57
2022-11-19T12:18:43.298Z,10.02
2022-11-19T12:21:39.047Z,10.85
2022-11-19T12:24:31.122Z,11.18
2022-11-19T12:27:48.752Z,8.32
2022-11-19T12:30:23.394Z,7.00
2022-11-19T12:33:37.157Z,8.65
2022-11-19T12:36:22.759Z,8.25
2022-11-19T12:42:27.081Z,8.13
2022-11-19T12:45:20.867Z,11.52
2022-11-19T12:48:52.152Z,12.05
2022-11-19T12:51:22.287Z,10.25
2022-11-19T12:54:28.850Z,9.73
2022-11-19T12:57:20.897Z,12.90
2022-11-19T13:00:16.600Z,9.77
2022-11-19T13:03:08.910Z,10.88
2022-11-19T13:05:52.095Z,9.10
2022-11-19T13:09:00.175Z,7.88
2022-11-19T13:12:07.855Z,7.50
2022-11-19T13:15:17.506Z,6.38
2022-11-19T13:17:52.575Z,7.28
2022-11-19T13:20:49.314Z,6.70
2022-11-19T13:23:45.276Z,6.50
2022-11-19T13:26:23.544Z,6.60
2022-11-19T13:29:22.376Z,7.15
2022-11-19T13:32:41.009Z,6.90
2022-11-19T13:35:18.636Z,7.80
2022-11-19T13:38:18.063Z,5.25
2022-11-19T13:41:15.618Z,8.38
2022-11-19T13:44:02.312Z,8.60
2022-11-19T13:46:35.615Z,6.80
2022-11-19T13:49:13.734Z,9.13
2022-11-19T13:51:53.956Z,9.02
2022-11-19T13:54:35.139Z,8.10
2022-11-19T13:57:04.449Z,9.05
2022-11-19T13:59:47.252Z,8.13
2022-11-19T14:02:48.646Z,7.70
2022-11-19T14:06:11.766Z,8.77
2022-11-19T14:08:43.656Z,9.88
2022-11-19T14:11:43.735Z,7.32
2022-11-19T14:15:17.299Z,11.90
2022-11-19T14:18:38.095Z,8.82
2022-11-19T14:21:42.660Z,10.70
2022-11-19T14:24:43.199Z,13.07
2022-11-19T14:27:26.869Z,9.63
2022-11-19T14:30:18.803Z,10.77
2022-11-19T14:32:52.484Z,14.40
2022-11-19T14:35:39.481Z,11.13
2022-11-19T14:38:32.848Z,12.25
2022-11-19T14:41:14.442Z,11.23
2022-11-19T14:44:10.831Z,11.65
2022-11-19T14:46:45.469Z,10.90
2022-11-19T14:49:24.229Z,10.90
2022-11-19T14:51:55.361Z,12.95
2022-11-19T14:54:39.582Z,10.77
2022-11-19T15:21:55.580Z,11.85
2022-11-19T15:25:02.554Z,12.07
2022-11-19T15:27:56.145Z,10.85
2022-11-19T15:31:06.374Z,11.10
2022-11-19T15:33:47.831Z,11.18
2022-11-19T15:40:32.452Z,13.00
2022-11-19T15:43:35.812Z,18.83
2022-11-19T15:46:32.977Z,23.33
2022-11-19T15:49:39.316Z,26.85
2022-11-19T15:52:37.851Z,30.42
2022-11-19T15:55:28.951Z,19.27
2022-11-19T15:58:21.806Z,21.45
2022-11-19T16:00:51.726Z,13.73
2022-11-19T16:03:20.307Z,16.75
2022-11-19T16:06:03.626Z,10.82
2022-11-19T16:08:31.757Z,9.73
2022-11-19T16:11:20.508Z,13.57
2022-11-19T16:14:13.422Z,11.07
2022-11-19T16:17:01.462Z,10.23
2022-11-19T16:19:31.217Z,11.45
2022-11-19T16:22:06.729Z,12.13
2022-11-19T16:24:55.709Z,10.30
2022-11-19T16:27:25.130Z,12.07
2022-11-19T16:29:52.297Z,13.00
2022-11-19T16:32:22.283Z,13.50
2022-11-19T16:34:49.711Z,12.65
2022-11-19T16:37:21.542Z,10.88
2022-11-19T16:39:52.705Z,10.68
2022-11-19T16:42:26.791Z,12.25
2022-11-19T16:45:27.226Z,11.73
2022-11-19T16:48:02.485Z,12.77
2022-11-19T16:50:42.350Z,15.98
2022-11-19T16:53:12.315Z,13.98
2022-11-19T16:55:42.996Z,13.68
2022-11-19T16:58:17.892Z,11.93
2022-11-19T17:00:59.239Z,16.25
2022-11-19T17:03:36.414Z,14.02
2022-11-19T17:06:05.842Z,14.23
2022-11-19T17:08:36.829Z,14.27
2022-11-19T17:11:39.262Z,13.85
2022-11-19T17:14:35.532Z,13.73
2022-11-19T17:19:36.215Z,11.45
2022-11-19T17:22:26.688Z,12.38
2022-11-19T17:24:53.869Z,13.18
2022-11-19T17:27:36.796Z,12.05
2022-11-19T17:30:30.277Z,13.77
2022-11-19T17:33:03.758Z,13.43
2022-11-19T17:35:42.398Z,11.90
2022-11-19T17:38:16.356Z,13.85
2022-11-19T17:40:56.490Z,12.57
2022-11-19T17:43:54.547Z,10.52
2022-11-19T17:46:24.056Z,13.43
2022-11-19T17:48:52.643Z,12.52
2022-11-19T17:51:23.072Z,15.23
2022-11-19T17:53:52.072Z,13.32
2022-11-19T17:56:30.619Z,12.52
2022-11-19T17:58:59.603Z,15.88
2022-11-19T18:01:26.658Z,17.05
2022-11-19T18:03:56.442Z,17.45
2022-11-19T18:06:23.353Z,18.30
2022-11-19T18:08:50.241Z,15.10
2022-11-19T18:11:20.930Z,18.35
2022-11-19T18:13:51.861Z,14.35
2022-11-19T18:16:25.132Z,17.63
2022-11-19T18:18:53.765Z,17.15
2022-11-19T18:21:23.925Z,14.20
2022-11-19T18:23:52.177Z,18.85
2022-11-19T18:26:22.518Z,19.08
2022-11-19T18:28:49.917Z,19.20
2022-11-19T18:31:26.690Z,17.52
2022-11-19T18:33:55.984Z,22.08
2022-11-19T18:36:25.211Z,18.98
2022-11-19T18:38:52.968Z,19.85
2022-11-19T18:41:20.105Z,22.52
2022-11-19T18:44:05.900Z,21.60
2022-11-19T18:46:32.983Z,18.73
2022-11-19T18:49:00.050Z,20.20
2022-11-19T18:51:31.046Z,24.17
2022-11-19T18:53:58.166Z,19.13
2022-11-19T18:56:25.451Z,18.17
2022-11-19T18:58:52.508Z,17.98
2022-11-19T19:01:19.806Z,20.65
2022-11-19T19:03:47.470Z,21.15
2022-11-19T19:06:15.521Z,22.15
2022-11-19T19:08:42.697Z,23.50
2022-11-19T19:11:28.100Z,21.02
2022-11-19T19:13:55.018Z,26.52
2022-11-19T19:16:22.859Z,26.42
2022-11-19T19:18:49.973Z,24.65
2022-11-19T19:21:20.543Z,25.25
2022-11-19T19:23:48.377Z,30.92
2022-11-19T19:26:18.306Z,32.03
2022-11-19T19:28:50.547Z,32.08
2022-11-19T19:31:21.603Z,28.83
2022-11-19T19:33:49.069Z,33.42
2022-11-19T19:36:17.991Z,37.58
2022-11-19T19:38:45.128Z,37.90
2022-11-19T19:41:21.080Z,31.45
2022-11-19T19:43:49.577Z,29.50
2022-11-19T19:46:20.464Z,26.88
2022-11-19T19:48:54.373Z,28.63
2022-11-19T19:51:26.121Z,30.70
2022-11-19T19:53:54.026Z,32.88
2022-11-19T19:56:32.733Z,36.50
2022-11-19T19:59:01.686Z,36.35
2022-11-19T20:01:32.979Z,31.48
2022-11-19T20:04:11.583Z,31.73
2022-11-19T20:06:45.174Z,31.83
2022-11-19T20:09:12.386Z,34.83
2022-11-19T20:11:39.373Z,33.33
2022-11-19T20:14:07.061Z,31.55
2022-11-19T20:16:38.539Z,34.22
2022-11-19T20:19:07.452Z,34.70
2022-11-19T20:21:36.287Z,35.00
2022-11-19T20:24:11.500Z,36.80
2022-11-19T20:26:40.318Z,37.40
2022-11-19T20:29:11.618Z,35.95
2022-11-19T20:31:38.935Z,44.15
2022-11-19T20:34:06.666Z,40.47
2022-11-19T20:36:35.630Z,37.75
2022-11-19T20:39:03.623Z,42.25
2022-11-19T20:41:48.972Z,36.10
2022-11-19T20:44:20.018Z,40.67
2022-11-19T20:47:03.022Z,39.97
2022-11-19T20:49:39.320Z,45.38
2022-11-19T20:52:07.963Z,37.60
2022-11-19T20:54:35.519Z,38.63
2022-11-19T20:57:02.523Z,40.75
2022-11-19T20:59:30.443Z,37.47
2022-11-19T21:01:57.813Z,35.70
2022-11-19T21:04:27.807Z,36.97
2022-11-19T21:06:54.784Z,39.83
2022-11-19T21:09:22.263Z,39.10
2022-11-19T21:11:49.482Z,39.25
2022-11-19T21:14:16.608Z,38.80
2022-11-19T21:16:43.869Z,44.00
2022-11-19T21:19:12.389Z,41.33
2022-11-19T21:21:39.312Z,41.33
2022-11-19T21:24:07.019Z,42.78
2022-11-19T21:26:34.244Z,39.15
2022-11-19T21:29:01.220Z,40.20
2022-11-19T21:31:43.926Z,38.88
2022-11-19T21:34:13.074Z,37.42
2022-11-19T21:36:41.949Z,38.30
2022-11-19T21:39:10.470Z,37.88
2022-11-19T21:41:37.794Z,39.70
2022-11-19T21:44:05.424Z,39.20
2022-11-19T21:46:33.431Z,39.95
2022-11-19T21:49:00.722Z,36.72
2022-11-19T21:51:27.625Z,38.53
2022-11-19T21:53:56.749Z,35.28
2022-11-19T21:56:25.703Z,36.13
2022-11-19T21:58:52.811Z,39.13
2022-11-19T22:01:19.979Z,36.00
2022-11-19T22:03:47.381Z,31.45
2022-11-19T22:06:14.708Z,33.50
2022-11-19T22:08:42.766Z,43.05
2022-11-19T22:11:30.520Z,35.55
2022-11-19T22:14:04.912Z,41.03
2022-11-19T22:16:38.650Z,35.83
2022-11-19T22:19:06.539Z,35.90
2022-11-19T22:21:34.410Z,30.45
2022-11-19T22:24:01.652Z,34.35
2022-11-19T22:26:28.687Z,35.08
2022-11-19T22:28:55.862Z,35.35
2022-11-19T22:31:24.439Z,34.95
2022-11-19T22:33:52.286Z,31.85
2022-11-19T22:36:21.978Z,34.20
2022-11-19T22:38:50.361Z,40.70
2022-11-19T22:41:20.596Z,37.92
2022-11-19T22:43:48.150Z,33.42
2022-11-19T22:46:15.953Z,33.92
2022-11-19T22:48:43.372Z,34.78
2022-11-19T22:51:15.874Z,32.60
2022-11-19T22:53:43.809Z,37.85
2022-11-19T22:56:14.496Z,32.88
2022-11-19T22:58:41.893Z,35.67
2022-11-19T23:01:18.008Z,27.25
2022-11-19T23:03:46.192Z,33.40
2022-11-19T23:06:13.683Z,29.45
2022-11-19T23:08:40.836Z,34.88
2022-11-19T23:11:08.144Z,31.95
2022-11-19T23:13:39.088Z,33.78
2022-11-19T23:16:06.251Z,37.22
2022-11-19T23:18:45.846Z,31.88
2022-11-19T23:21:16.929Z,31.83
2022-11-19T23:23:44.356Z,33.65
2022-11-19T23:26:15.408Z,28.48
2022-11-19T23:28:43.149Z,28.20
2022-11-19T23:31:16.971Z,29.02
2022-11-19T23:33:44.853Z,31.95
2022-11-19T23:36:15.488Z,31.05
2022-11-19T23:38:43.744Z,29.65
2022-11-19T23:41:14.004Z,29.45
2022-11-19T23:43:42.189Z,27.80
2022-11-19T23:46:24.471Z,38.15
2022-11-19T23:48:52.074Z,31.00
2022-11-19T23:51:22.884Z,30.85
2022-11-19T23:53:49.965Z,34.85
2022-11-19T23:56:19.637Z,34.50
2022-11-19T23:58:46.920Z,38.70
